sensor_id;sensor_type;location;lat;lon;timestamp;pressure;altitude;pressure_sealevel;temperature;humidity
73594;BME280;64760;53.404;23.498;2023-01-10T00:02:12;98706.41;;;2.75;98.17
73594;BME280;64760;53.404;23.498;2023-01-10T00:04:38;98697.81;;;2.73;98.01
73594;BME280;64760;53.404;23.498;2023-01-10T00:07:05;98699.28;;;2.75;97.95
73594;BME280;64760;53.404;23.498;2023-01-10T00:09:31;98698.66;;;2.73;97.76
73594;BME280;64760;53.404;23.498;2023-01-10T00:11:57;98699.81;;;2.71;98.34
73594;BME280;64760;53.404;23.498;2023-01-10T00:14:42;98701.66;;;2.70;98.13
73594;BME280;64760;53.404;23.498;2023-01-10T00:17:08;98702.66;;;2.69;97.97
73594;BME280;64760;53.404;23.498;2023-01-10T00:19:35;98709.91;;;2.67;98.15
73594;BME280;64760;53.404;23.498;2023-01-10T00:25:03;98707.94;;;2.69;98.24
73594;BME280;64760;53.404;23.498;2023-01-10T00:27:30;98716.69;;;2.70;98.20
73594;BME280;64760;53.404;23.498;2023-01-10T00:29:56;98720.97;;;2.71;97.98
73594;BME280;64760;53.404;23.498;2023-01-10T00:32:26;98719.34;;;2.70;97.90
73594;BME280;64760;53.404;23.498;2023-01-10T00:34:52;98713.72;;;2.65;97.89
73594;BME280;64760;53.404;23.498;2023-01-10T00:37:19;98728.28;;;2.69;98.17
73594;BME280;64760;53.404;23.498;2023-01-10T00:39:45;98720.50;;;2.67;98.36
73594;BME280;64760;53.404;23.498;2023-01-10T00:42:12;98736.69;;;2.72;97.96
73594;BME280;64760;53.404;23.498;2023-01-10T00:44:59;98743.78;;;2.72;98.05
73594;BME280;64760;53.404;23.498;2023-01-10T00:47:26;98742.31;;;2.69;98.18
73594;BME280;64760;53.404;23.498;2023-01-10T00:49:52;98741.81;;;2.74;98.42
73594;BME280;64760;53.404;23.498;2023-01-10T00:52:19;98747.13;;;2.74;97.92
73594;BME280;64760;53.404;23.498;2023-01-10T00:54:45;98747.75;;;2.76;98.01
73594;BME280;64760;53.404;23.498;2023-01-10T00:57:13;98736.53;;;2.74;97.77
73594;BME280;64760;53.404;23.498;2023-01-10T00:59:39;98745.78;;;2.78;97.95
73594;BME280;64760;53.404;23.498;2023-01-10T01:02:05;98747.13;;;2.74;97.89
73594;BME280;64760;53.404;23.498;2023-01-10T01:04:31;98759.31;;;2.75;97.73
73594;BME280;64760;53.404;23.498;2023-01-10T01:07:00;98756.88;;;2.73;97.84
73594;BME280;64760;53.404;23.498;2023-01-10T01:09:28;98760.16;;;2.75;97.73
73594;BME280;64760;53.404;23.498;2023-01-10T01:11:55;98762.97;;;2.74;97.88
73594;BME280;64760;53.404;23.498;2023-01-10T01:14:24;98763.31;;;2.71;97.98
73594;BME280;64760;53.404;23.498;2023-01-10T01:16:52;98761.69;;;2.70;97.97
73594;BME280;64760;53.404;23.498;2023-01-10T01:19:18;98763.63;;;2.76;97.91
73594;BME280;64760;53.404;23.498;2023-01-10T01:21:44;98768.91;;;2.76;97.81
73594;BME280;64760;53.404;23.498;2023-01-10T01:24:10;98774.72;;;2.71;97.62
73594;BME280;64760;53.404;23.498;2023-01-10T01:26:37;98780.84;;;2.72;97.83
73594;BME280;64760;53.404;23.498;2023-01-10T01:29:04;98779.19;;;2.71;97.72
73594;BME280;64760;53.404;23.498;2023-01-10T01:31:32;98780.00;;;2.71;98.04
73594;BME280;64760;53.404;23.498;2023-01-10T01:33:58;98783.31;;;2.73;97.93
73594;BME280;64760;53.404;23.498;2023-01-10T01:36:24;98780.19;;;2.70;98.01
73594;BME280;64760;53.404;23.498;2023-01-10T01:38:50;98774.22;;;2.68;98.09
73594;BME280;64760;53.404;23.498;2023-01-10T01:41:17;98778.66;;;2.75;98.07
73594;BME280;64760;53.404;23.498;2023-01-10T01:44:12;98780.00;;;2.71;97.96
73594;BME280;64760;53.404;23.498;2023-01-10T01:46:57;98787.44;;;2.76;98.22
73594;BME280;64760;53.404;23.498;2023-01-10T01:49:25;98790.44;;;2.73;98.04
73594;BME280;64760;53.404;23.498;2023-01-10T01:51:57;98796.06;;;2.70;97.67
73594;BME280;64760;53.404;23.498;2023-01-10T01:54:25;98807.47;;;2.70;97.82
73594;BME280;64760;53.404;23.498;2023-01-10T01:57:04;98808.28;;;2.71;97.76
73594;BME280;64760;53.404;23.498;2023-01-10T01:59:33;98810.75;;;2.72;97.83
73594;BME280;64760;53.404;23.498;2023-01-10T02:02:07;98808.94;;;2.73;97.93
73594;BME280;64760;53.404;23.498;2023-01-10T02:04:39;98817.38;;;2.76;97.84
73594;BME280;64760;53.404;23.498;2023-01-10T02:07:08;98818.19;;;2.77;97.77
73594;BME280;64760;53.404;23.498;2023-01-10T02:12:05;98815.06;;;2.73;97.90
73594;BME280;64760;53.404;23.498;2023-01-10T02:14:32;98825.66;;;2.73;97.97
73594;BME280;64760;53.404;23.498;2023-01-10T02:16:59;98821.00;;;2.75;97.77
73594;BME280;64760;53.404;23.498;2023-01-10T02:19:38;98821.19;;;2.74;98.05
73594;BME280;64760;53.404;23.498;2023-01-10T02:34:15;98839.69;;;2.82;97.51
73594;BME280;64760;53.404;23.498;2023-01-10T02:37:02;98838.88;;;2.81;97.41
73594;BME280;64760;53.404;23.498;2023-01-10T02:42:47;98835.53;;;2.79;97.42
73594;BME280;64760;53.404;23.498;2023-01-10T02:45:45;98843.84;;;2.76;97.38
73594;BME280;64760;53.404;23.498;2023-01-10T02:48:15;98836.88;;;2.75;97.36
73594;BME280;64760;53.404;23.498;2023-01-10T02:53:12;98825.81;;;2.72;97.49
73594;BME280;64760;53.404;23.498;2023-01-10T02:58:50;98845.97;;;2.81;97.52
73594;BME280;64760;53.404;23.498;2023-01-10T03:07:02;98857.19;;;2.91;97.58
73594;BME280;64760;53.404;23.498;2023-01-10T03:09:34;98869.28;;;2.86;97.35
73594;BME280;64760;53.404;23.498;2023-01-10T03:12:13;98863.31;;;2.83;97.46
73594;BME280;64760;53.404;23.498;2023-01-10T03:14:44;98859.53;;;2.86;97.17
73594;BME280;64760;53.404;23.498;2023-01-10T03:17:13;98867.13;;;2.89;97.22
73594;BME280;64760;53.404;23.498;2023-01-10T03:19:53;98865.31;;;2.90;97.57
73594;BME280;64760;53.404;23.498;2023-01-10T03:22:23;98878.53;;;2.90;97.29
73594;BME280;64760;53.404;23.498;2023-01-10T03:24:52;98871.59;;;2.89;97.04
73594;BME280;64760;53.404;23.498;2023-01-10T03:32:46;98876.38;;;2.93;97.40
73594;BME280;64760;53.404;23.498;2023-01-10T03:35:13;98873.25;;;2.90;96.93
73594;BME280;64760;53.404;23.498;2023-01-10T03:37:45;98877.03;;;2.87;97.05
73594;BME280;64760;53.404;23.498;2023-01-10T03:40:24;98882.34;;;2.87;97.36
73594;BME280;64760;53.404;23.498;2023-01-10T03:43:04;98888.31;;;2.89;97.34
73594;BME280;64760;53.404;23.498;2023-01-10T03:45:58;98890.28;;;2.87;97.41
73594;BME280;64760;53.404;23.498;2023-01-10T03:48:30;98896.41;;;2.88;97.40
73594;BME280;64760;53.404;23.498;2023-01-10T03:51:01;98893.59;;;2.89;97.43
73594;BME280;64760;53.404;23.498;2023-01-10T03:53:30;98898.56;;;2.84;97.14
73594;BME280;64760;53.404;23.498;2023-01-10T03:55:56;98897.56;;;2.85;97.33
73594;BME280;64760;53.404;23.498;2023-01-10T03:58:23;98897.72;;;2.83;97.40
73594;BME280;64760;53.404;23.498;2023-01-10T04:00:49;98909.00;;;2.86;97.83
73594;BME280;64760;53.404;23.498;2023-01-10T04:03:16;98914.09;;;2.87;97.24
73594;BME280;64760;53.404;23.498;2023-01-10T04:05:45;98909.97;;;2.84;97.23
73594;BME280;64760;53.404;23.498;2023-01-10T04:08:12;98924.88;;;2.86;97.29
73594;BME280;64760;53.404;23.498;2023-01-10T04:10:38;98936.59;;;2.83;97.57
73594;BME280;64760;53.404;23.498;2023-01-10T04:13:04;98930.16;;;2.77;97.62
73594;BME280;64760;53.404;23.498;2023-01-10T04:15:31;98936.94;;;2.80;97.44
73594;BME280;64760;53.404;23.498;2023-01-10T04:17:57;98945.06;;;2.78;98.08
73594;BME280;64760;53.404;23.498;2023-01-10T04:20:24;98951.66;;;2.82;97.80
73594;BME280;64760;53.404;23.498;2023-01-10T04:22:52;98940.56;;;2.79;97.54
73594;BME280;64760;53.404;23.498;2023-01-10T04:25:21;98950.50;;;2.85;97.96
73594;BME280;64760;53.404;23.498;2023-01-10T04:27:48;98951.13;;;2.87;97.81
73594;BME280;64760;53.404;23.498;2023-01-10T04:30:16;98941.56;;;2.94;97.78
73594;BME280;64760;53.404;23.498;2023-01-10T04:32:42;98947.50;;;2.96;97.52
73594;BME280;64760;53.404;23.498;2023-01-10T04:35:08;98943.88;;;2.97;97.62
73594;BME280;64760;53.404;23.498;2023-01-10T04:37:35;98954.94;;;3.01;97.94
73594;BME280;64760;53.404;23.498;2023-01-10T04:40:03;98947.66;;;3.03;97.35
73594;BME280;64760;53.404;23.498;2023-01-10T04:42:29;98961.91;;;3.02;97.65
73594;BME280;64760;53.404;23.498;2023-01-10T04:44:55;98961.41;;;3.06;97.40
73594;BME280;64760;53.404;23.498;2023-01-10T04:47:22;98961.56;;;3.05;97.47
73594;BME280;64760;53.404;23.498;2023-01-10T04:49:49;98968.00;;;3.10;97.44
73594;BME280;64760;53.404;23.498;2023-01-10T04:52:15;98975.28;;;3.16;96.73
73594;BME280;64760;53.404;23.498;2023-01-10T04:54:43;98977.09;;;3.16;96.70
73594;BME280;64760;53.404;23.498;2023-01-10T04:57:09;98985.03;;;3.16;96.88
73594;BME280;64760;53.404;23.498;2023-01-10T04:59:35;98983.38;;;3.15;96.23
73594;BME280;64760;53.404;23.498;2023-01-10T05:02:02;98974.28;;;3.09;96.48
73594;BME280;64760;53.404;23.498;2023-01-10T05:04:28;98972.28;;;3.11;96.47
73594;BME280;64760;53.404;23.498;2023-01-10T05:06:54;98984.88;;;3.09;96.84
73594;BME280;64760;53.404;23.498;2023-01-10T05:09:20;98995.63;;;3.08;96.51
73594;BME280;64760;53.404;23.498;2023-01-10T05:11:47;98988.03;;;3.05;96.60
73594;BME280;64760;53.404;23.498;2023-01-10T05:14:13;98996.81;;;3.05;96.76
73594;BME280;64760;53.404;23.498;2023-01-10T05:16:39;99001.13;;;3.06;96.88
73594;BME280;64760;53.404;23.498;2023-01-10T05:19:05;99002.25;;;2.96;96.72
73594;BME280;64760;53.404;23.498;2023-01-10T05:21:31;99008.88;;;3.00;96.48
73594;BME280;64760;53.404;23.498;2023-01-10T05:23:58;99007.72;;;3.02;96.80
73594;BME280;64760;53.404;23.498;2023-01-10T05:26:24;99011.19;;;3.03;97.02
73594;BME280;64760;53.404;23.498;2023-01-10T05:28:50;99017.31;;;3.03;96.89
73594;BME280;64760;53.404;23.498;2023-01-10T05:31:17;99019.81;;;3.05;96.86
73594;BME280;64760;53.404;23.498;2023-01-10T05:33:46;99025.25;;;3.03;96.96
73594;BME280;64760;53.404;23.498;2023-01-10T05:36:14;99025.59;;;3.00;97.19
73594;BME280;64760;53.404;23.498;2023-01-10T05:38:40;99029.22;;;2.99;97.07
73594;BME280;64760;53.404;23.498;2023-01-10T05:41:07;99025.75;;;2.99;97.00
73594;BME280;64760;53.404;23.498;2023-01-10T05:43:33;99037.66;;;3.03;97.36
73594;BME280;64760;53.404;23.498;2023-01-10T05:46:00;99049.91;;;3.04;96.71
73594;BME280;64760;53.404;23.498;2023-01-10T05:48:26;99050.59;;;2.98;96.86
73594;BME280;64760;53.404;23.498;2023-01-10T05:50:53;99063.31;;;2.94;97.39
73594;BME280;64760;53.404;23.498;2023-01-10T05:53:19;99062.00;;;2.90;96.90
73594;BME280;64760;53.404;23.498;2023-01-10T05:56:12;99072.41;;;2.92;96.99
73594;BME280;64760;53.404;23.498;2023-01-10T05:58:38;99074.88;;;2.93;97.37
73594;BME280;64760;53.404;23.498;2023-01-10T06:01:04;99086.66;;;2.91;97.38
73594;BME280;64760;53.404;23.498;2023-01-10T06:03:30;99090.59;;;2.95;97.47
73594;BME280;64760;53.404;23.498;2023-01-10T06:05:57;99096.56;;;2.97;97.45
73594;BME280;64760;53.404;23.498;2023-01-10T06:08:23;99094.56;;;2.99;97.19
73594;BME280;64760;53.404;23.498;2023-01-10T06:10:49;99089.59;;;2.96;97.29
73594;BME280;64760;53.404;23.498;2023-01-10T06:13:15;99092.09;;;2.97;97.14
73594;BME280;64760;53.404;23.498;2023-01-10T06:15:42;99095.72;;;2.96;97.47
73594;BME280;64760;53.404;23.498;2023-01-10T06:18:24;99113.28;;;2.97;97.42
73594;BME280;64760;53.404;23.498;2023-01-10T06:20:51;99122.88;;;2.98;97.57
73594;BME280;64760;53.404;23.498;2023-01-10T06:23:18;99113.28;;;2.97;96.85
73594;BME280;64760;53.404;23.498;2023-01-10T06:25:44;99126.84;;;3.02;97.03
73594;BME280;64760;53.404;23.498;2023-01-10T06:28:13;99129.31;;;3.04;97.09
73594;BME280;64760;53.404;23.498;2023-01-10T06:30:40;99131.13;;;3.03;97.47
73594;BME280;64760;53.404;23.498;2023-01-10T06:33:08;99132.16;;;3.02;97.06
73594;BME280;64760;53.404;23.498;2023-01-10T06:35:39;99142.41;;;3.05;97.35
73594;BME280;64760;53.404;23.498;2023-01-10T06:38:07;99145.06;;;3.05;97.19
73594;BME280;64760;53.404;23.498;2023-01-10T06:40:35;99144.22;;;3.05;97.10
73594;BME280;64760;53.404;23.498;2023-01-10T06:43:01;99150.16;;;3.07;97.05
73594;BME280;64760;53.404;23.498;2023-01-10T06:45:27;99158.78;;;3.09;97.30
73594;BME280;64760;53.404;23.498;2023-01-10T06:47:53;99162.59;;;3.06;97.08
73594;BME280;64760;53.404;23.498;2023-01-10T06:50:20;99164.09;;;3.09;96.80
73594;BME280;64760;53.404;23.498;2023-01-10T06:52:57;99166.22;;;3.05;97.34
73594;BME280;64760;53.404;23.498;2023-01-10T06:55:25;99168.56;;;3.08;97.19
73594;BME280;64760;53.404;23.498;2023-01-10T06:57:59;99179.13;;;3.08;97.42
73594;BME280;64760;53.404;23.498;2023-01-10T07:00:27;99182.47;;;3.10;97.10
73594;BME280;64760;53.404;23.498;2023-01-10T07:02:57;99189.59;;;3.10;97.09
73594;BME280;64760;53.404;23.498;2023-01-10T07:05:24;99186.09;;;3.09;97.48
73594;BME280;64760;53.404;23.498;2023-01-10T07:07:52;99201.31;;;3.15;97.32
73594;BME280;64760;53.404;23.498;2023-01-10T07:10:25;99192.41;;;3.16;97.24
73594;BME280;64760;53.404;23.498;2023-01-10T07:12:54;99201.03;;;3.18;97.09
73594;BME280;64760;53.404;23.498;2023-01-10T07:15:21;99201.03;;;3.18;97.53
73594;BME280;64760;53.404;23.498;2023-01-10T07:17:47;99211.28;;;3.21;97.29
73594;BME280;64760;53.404;23.498;2023-01-10T07:20:14;99208.31;;;3.24;97.41
73594;BME280;64760;53.404;23.498;2023-01-10T07:22:40;99212.75;;;3.24;97.22
73594;BME280;64760;53.404;23.498;2023-01-10T07:25:07;99221.22;;;3.27;96.57
73594;BME280;64760;53.404;23.498;2023-01-10T07:27:33;99223.84;;;3.27;97.04
73594;BME280;64760;53.404;23.498;2023-01-10T07:30:00;99232.63;;;3.28;96.49
73594;BME280;64760;53.404;23.498;2023-01-10T07:32:27;99234.31;;;3.29;96.73
73594;BME280;64760;53.404;23.498;2023-01-10T07:34:53;99227.50;;;3.26;96.69
73594;BME280;64760;53.404;23.498;2023-01-10T07:37:22;99240.72;;;3.26;96.88
73594;BME280;64760;53.404;23.498;2023-01-10T07:39:50;99238.41;;;3.23;96.30
73594;BME280;64760;53.404;23.498;2023-01-10T07:42:20;99239.72;;;3.19;96.89
73594;BME280;64760;53.404;23.498;2023-01-10T07:44:48;99252.66;;;3.22;96.63
73594;BME280;64760;53.404;23.498;2023-01-10T07:47:14;99248.03;;;3.24;96.68
73594;BME280;64760;53.404;23.498;2023-01-10T07:49:41;99255.00;;;3.25;96.50
73594;BME280;64760;53.404;23.498;2023-01-10T07:52:21;99260.78;;;3.29;96.71
73594;BME280;64760;53.404;23.498;2023-01-10T07:57:55;99265.22;;;3.20;96.96
73594;BME280;64760;53.404;23.498;2023-01-10T08:00:23;99270.53;;;3.20;97.09
73594;BME280;64760;53.404;23.498;2023-01-10T08:02:55;99276.81;;;3.19;96.63
73594;BME280;64760;53.404;23.498;2023-01-10T08:05:22;99273.66;;;3.16;97.01
73594;BME280;64760;53.404;23.498;2023-01-10T08:07:48;99267.69;;;3.14;96.75
73594;BME280;64760;53.404;23.498;2023-01-10T08:10:15;99272.16;;;3.13;96.78
73594;BME280;64760;53.404;23.498;2023-01-10T08:12:41;99278.28;;;3.14;97.22
73594;BME280;64760;53.404;23.498;2023-01-10T08:15:13;99270.66;;;3.11;97.31
73594;BME280;64760;53.404;23.498;2023-01-10T08:17:42;99277.81;;;3.18;97.20
73594;BME280;64760;53.404;23.498;2023-01-10T08:20:10;99273.03;;;3.22;96.81
73594;BME280;64760;53.404;23.498;2023-01-10T08:22:37;99272.69;;;3.25;97.27
73594;BME280;64760;53.404;23.498;2023-01-10T08:25:04;99274.50;;;3.24;97.18
73594;BME280;64760;53.404;23.498;2023-01-10T08:27:30;99268.22;;;3.25;96.59
73594;BME280;64760;53.404;23.498;2023-01-10T08:29:56;99265.59;;;3.25;96.89
73594;BME280;64760;53.404;23.498;2023-01-10T08:32:23;99273.03;;;3.30;96.93
73594;BME280;64760;53.404;23.498;2023-01-10T08:34:50;99275.84;;;3.28;96.80
73594;BME280;64760;53.404;23.498;2023-01-10T08:37:17;99288.59;;;3.33;96.75
73594;BME280;64760;53.404;23.498;2023-01-10T08:39:45;99284.16;;;3.34;96.65
73594;BME280;64760;53.404;23.498;2023-01-10T08:42:11;99296.22;;;3.36;96.61
73594;BME280;64760;53.404;23.498;2023-01-10T08:44:37;99288.44;;;3.35;96.75
73594;BME280;64760;53.404;23.498;2023-01-10T08:47:04;99303.00;;;3.39;96.92
73594;BME280;64760;53.404;23.498;2023-01-10T08:49:30;99297.06;;;3.37;96.54
73594;BME280;64760;53.404;23.498;2023-01-10T08:51:57;99297.72;;;3.39;96.40
73594;BME280;64760;53.404;23.498;2023-01-10T08:54:23;99307.66;;;3.37;96.58
73594;BME280;64760;53.404;23.498;2023-01-10T08:56:52;99309.63;;;3.43;96.51
73594;BME280;64760;53.404;23.498;2023-01-10T08:59:19;99309.63;;;3.43;96.76
73594;BME280;64760;53.404;23.498;2023-01-10T09:01:45;99317.09;;;3.47;96.75
73594;BME280;64760;53.404;23.498;2023-01-10T09:04:12;99316.59;;;3.44;96.46
73594;BME280;64760;53.404;23.498;2023-01-10T09:06:38;99320.25;;;3.43;96.56
73594;BME280;64760;53.404;23.498;2023-01-10T09:09:06;99320.25;;;3.43;96.41
73594;BME280;64760;53.404;23.498;2023-01-10T09:11:35;99331.84;;;3.42;96.21
73594;BME280;64760;53.404;23.498;2023-01-10T09:14:02;99332.69;;;3.42;96.73
73594;BME280;64760;53.404;23.498;2023-01-10T09:16:28;99341.78;;;3.48;96.54
73594;BME280;64760;53.404;23.498;2023-01-10T09:18:54;99337.00;;;3.51;96.54
73594;BME280;64760;53.404;23.498;2023-01-10T09:21:21;99341.31;;;3.52;96.62
73594;BME280;64760;53.404;23.498;2023-01-10T09:23:50;99352.91;;;3.59;96.38
73594;BME280;64760;53.404;23.498;2023-01-10T09:26:16;99337.34;;;3.56;96.15
73594;BME280;64760;53.404;23.498;2023-01-10T09:28:43;99336.34;;;3.49;96.23
73594;BME280;64760;53.404;23.498;2023-01-10T09:31:09;99347.28;;;3.54;96.11
73594;BME280;64760;53.404;23.498;2023-01-10T09:33:38;99344.63;;;3.54;96.10
73594;BME280;64760;53.404;23.498;2023-01-10T09:36:06;99342.66;;;3.56;96.35
73594;BME280;64760;53.404;23.498;2023-01-10T09:38:34;99343.00;;;3.61;95.81
73594;BME280;64760;53.404;23.498;2023-01-10T09:41:06;99340.84;;;3.65;96.03
73594;BME280;64760;53.404;23.498;2023-01-10T09:44:01;99345.44;;;3.55;95.92
73594;BME280;64760;53.404;23.498;2023-01-10T09:46:41;99342.28;;;3.51;95.42
73594;BME280;64760;53.404;23.498;2023-01-10T09:52:41;99355.75;;;3.58;95.81
73594;BME280;64760;53.404;23.498;2023-01-10T09:55:20;99354.72;;;3.59;96.03
73594;BME280;64760;53.404;23.498;2023-01-10T09:57:51;99351.06;;;3.52;96.09
73594;BME280;64760;53.404;23.498;2023-01-10T10:00:21;99356.03;;;3.55;96.13
73594;BME280;64760;53.404;23.498;2023-01-10T10:02:50;99360.22;;;3.57;95.80
73594;BME280;64760;53.404;23.498;2023-01-10T10:05:25;99360.72;;;3.61;95.64
73594;BME280;64760;53.404;23.498;2023-01-10T10:08:15;99356.72;;;3.57;96.11
73594;BME280;64760;53.404;23.498;2023-01-10T10:14:17;99358.38;;;3.50;95.68
73594;BME280;64760;53.404;23.498;2023-01-10T10:19:44;99363.00;;;3.56;95.86
73594;BME280;64760;53.404;23.498;2023-01-10T10:22:56;99364.00;;;3.55;95.76
73594;BME280;64760;53.404;23.498;2023-01-10T10:33:53;99364.69;;;3.57;95.88
73594;BME280;64760;53.404;23.498;2023-01-10T10:36:26;99357.22;;;3.52;95.59
73594;BME280;64760;53.404;23.498;2023-01-10T10:38:57;99356.38;;;3.52;96.20
73594;BME280;64760;53.404;23.498;2023-01-10T10:43:57;99352.06;;;3.59;95.93
73594;BME280;64760;53.404;23.498;2023-01-10T10:46:29;99362.38;;;3.62;96.16
73594;BME280;64760;53.404;23.498;2023-01-10T10:49:05;99366.50;;;3.64;95.37
73594;BME280;64760;53.404;23.498;2023-01-10T10:54:29;99371.34;;;3.69;95.75
73594;BME280;64760;53.404;23.498;2023-01-10T10:56:56;99367.84;;;3.68;95.64
73594;BME280;64760;53.404;23.498;2023-01-10T10:59:24;99366.38;;;3.66;95.56
73594;BME280;64760;53.404;23.498;2023-01-10T11:02:02;99371.50;;;3.67;95.69
73594;BME280;64760;53.404;23.498;2023-01-10T11:04:41;99373.50;;;3.73;95.58
73594;BME280;64760;53.404;23.498;2023-01-10T11:07:09;99379.13;;;3.78;95.48
73594;BME280;64760;53.404;23.498;2023-01-10T11:09:37;99374.66;;;3.79;95.62
73594;BME280;64760;53.404;23.498;2023-01-10T11:12:04;99383.63;;;3.78;95.59
73594;BME280;64760;53.404;23.498;2023-01-10T11:14:42;99379.34;;;3.85;95.57
73594;BME280;64760;53.404;23.498;2023-01-10T11:17:37;99384.16;;;3.90;95.09
73594;BME280;64760;53.404;23.498;2023-01-10T11:20:16;99385.63;;;3.92;94.95
73594;BME280;64760;53.404;23.498;2023-01-10T11:22:46;99396.09;;;3.94;94.78
73594;BME280;64760;53.404;23.498;2023-01-10T11:25:15;99395.06;;;3.87;94.60
73594;BME280;64760;53.404;23.498;2023-01-10T11:27:50;99399.22;;;3.89;94.51
73594;BME280;64760;53.404;23.498;2023-01-10T11:30:24;99396.56;;;3.89;94.86
73594;BME280;64760;53.404;23.498;2023-01-10T11:35:24;99411.97;;;3.86;95.10
73594;BME280;64760;53.404;23.498;2023-01-10T11:40:33;99398.84;;;3.76;94.95
73594;BME280;64760;53.404;23.498;2023-01-10T11:43:28;99399.19;;;3.73;95.42
73594;BME280;64760;53.404;23.498;2023-01-10T11:45:59;99395.56;;;3.82;95.07
73594;BME280;64760;53.404;23.498;2023-01-10T11:48:58;99397.22;;;3.91;95.07
73594;BME280;64760;53.404;23.498;2023-01-10T11:51:33;99398.88;;;3.84;95.03
73594;BME280;64760;53.404;23.498;2023-01-10T11:54:06;99408.50;;;3.85;95.11
73594;BME280;64760;53.404;23.498;2023-01-10T11:56:37;99401.38;;;3.86;94.78
73594;BME280;64760;53.404;23.498;2023-01-10T11:59:17;99407.66;;;3.85;95.08
73594;BME280;64760;53.404;23.498;2023-01-10T12:04:31;99402.69;;;3.82;95.00
73594;BME280;64760;53.404;23.498;2023-01-10T12:07:13;99408.13;;;3.80;95.14
73594;BME280;64760;53.404;23.498;2023-01-10T12:09:57;99409.81;;;3.81;95.13
73594;BME280;64760;53.404;23.498;2023-01-10T12:12:27;99416.28;;;3.95;94.81
73594;BME280;64760;53.404;23.498;2023-01-10T12:14:59;99414.66;;;3.94;95.07
73594;BME280;64760;53.404;23.498;2023-01-10T12:17:35;99428.91;;;4.01;94.55
73594;BME280;64760;53.404;23.498;2023-01-10T12:20:12;99429.91;;;4.00;94.48
73594;BME280;64760;53.404;23.498;2023-01-10T12:22:45;99432.06;;;4.04;94.23
73594;BME280;64760;53.404;23.498;2023-01-10T12:25:33;99428.91;;;4.01;94.02
73594;BME280;64760;53.404;23.498;2023-01-10T12:28:17;99430.72;;;4.00;94.42
73594;BME280;64760;53.404;23.498;2023-01-10T12:30:52;99440.84;;;3.97;94.34
73594;BME280;64760;53.404;23.498;2023-01-10T12:33:27;99443.81;;;3.94;93.74
73594;BME280;64760;53.404;23.498;2023-01-10T12:36:03;99453.59;;;3.93;93.78
73594;BME280;64760;53.404;23.498;2023-01-10T12:38:56;99459.53;;;3.95;94.27
73594;BME280;64760;53.404;23.498;2023-01-10T12:44:36;99458.44;;;3.64;95.45
73594;BME280;64760;53.404;23.498;2023-01-10T12:54:01;99476.03;;;3.73;95.81
73594;BME280;64760;53.404;23.498;2023-01-10T12:56:38;99480.19;;;3.75;95.11
73594;BME280;64760;53.404;23.498;2023-01-10T12:59:27;99479.19;;;3.76;95.22
73594;BME280;64760;53.404;23.498;2023-01-10T13:01:57;99479.69;;;3.72;95.35
73594;BME280;64760;53.404;23.498;2023-01-10T13:04:33;99487.00;;;3.78;95.35
73594;BME280;64760;53.404;23.498;2023-01-10T13:07:09;99494.28;;;3.76;95.11
73594;BME280;64760;53.404;23.498;2023-01-10T13:09:41;99501.56;;;3.74;95.59
73594;BME280;64760;53.404;23.498;2023-01-10T13:15:47;99505.84;;;3.75;95.34
73594;BME280;64760;53.404;23.498;2023-01-10T13:18:25;99508.78;;;3.64;95.14
73594;BME280;64760;53.404;23.498;2023-01-10T13:21:08;99508.94;;;3.62;95.09
73594;BME280;64760;53.404;23.498;2023-01-10T13:23:50;99507.75;;;3.57;95.84
73594;BME280;64760;53.404;23.498;2023-01-10T13:26:43;99523.03;;;3.63;95.63
73594;BME280;64760;53.404;23.498;2023-01-10T13:29:29;99527.16;;;3.57;95.71
73594;BME280;64760;53.404;23.498;2023-01-10T13:32:12;99530.63;;;3.58;95.76
73594;BME280;64760;53.404;23.498;2023-01-10T13:35:08;99525.34;;;3.58;96.18
73594;BME280;64760;53.404;23.498;2023-01-10T13:37:50;99537.78;;;3.65;96.01
73594;BME280;64760;53.404;23.498;2023-01-10T13:40:33;99541.09;;;3.67;95.75
73594;BME280;64760;53.404;23.498;2023-01-10T13:51:21;99552.88;;;3.65;95.33
73594;BME280;64760;53.404;23.498;2023-01-10T13:56:37;99561.19;;;3.70;94.72
73594;BME280;64760;53.404;23.498;2023-01-10T14:02:23;99573.81;;;3.50;94.63
73594;BME280;64760;53.404;23.498;2023-01-10T14:05:07;99574.88;;;3.40;95.49
73594;BME280;64760;53.404;23.498;2023-01-10T14:07:50;99587.22;;;3.31;95.78
73594;BME280;64760;53.404;23.498;2023-01-10T14:10:27;99581.59;;;3.26;96.02
73594;BME280;64760;53.404;23.498;2023-01-10T14:13:19;99577.84;;;3.19;95.87
73594;BME280;64760;53.404;23.498;2023-01-10T14:16:35;99596.31;;;3.11;96.17
73594;BME280;64760;53.404;23.498;2023-01-10T14:19:06;99597.84;;;3.13;96.20
73594;BME280;64760;53.404;23.498;2023-01-10T14:21:39;99596.50;;;3.09;96.42
73594;BME280;64760;53.404;23.498;2023-01-10T14:24:42;99598.91;;;3.03;96.08
73594;BME280;64760;53.404;23.498;2023-01-10T14:27:16;99599.84;;;2.94;96.01
73594;BME280;64760;53.404;23.498;2023-01-10T14:29:56;99605.97;;;2.94;96.14
73594;BME280;64760;53.404;23.498;2023-01-10T14:32:39;99606.16;;;2.83;95.73
73594;BME280;64760;53.404;23.498;2023-01-10T14:35:23;99604.72;;;2.71;95.94
73594;BME280;64760;53.404;23.498;2023-01-10T14:38:21;99619.09;;;2.68;96.15
73594;BME280;64760;53.404;23.498;2023-01-10T14:41:04;99612.56;;;2.63;96.33
73594;BME280;64760;53.404;23.498;2023-01-10T14:43:54;99606.22;;;2.56;96.16
73594;BME280;64760;53.404;23.498;2023-01-10T14:49:25;99616.56;;;2.49;95.70
73594;BME280;64760;53.404;23.498;2023-01-10T14:52:20;99612.69;;;2.44;95.81
73594;BME280;64760;53.404;23.498;2023-01-10T14:55:09;99624.72;;;2.38;95.39
73594;BME280;64760;53.404;23.498;2023-01-10T14:58:10;99626.50;;;2.38;95.62
73594;BME280;64760;53.404;23.498;2023-01-10T15:00:45;99632.78;;;2.36;95.65
73594;BME280;64760;53.404;23.498;2023-01-10T15:03:24;99641.31;;;2.30;96.03
73594;BME280;64760;53.404;23.498;2023-01-10T15:06:06;99642.84;;;2.23;95.76
73594;BME280;64760;53.404;23.498;2023-01-10T15:09:13;99643.97;;;2.30;95.25